Time;durP1;ratioP1;P1;durP2;ratioP2;P2;SDS_P1;SDS_P2;PMS_P1;PMS_P2;Temp;Humidity;BMP_temperature;BMP_pressure;BME280_temperature;BME280_humidity;BME280_pressure;Samples;Min_cycle;Max_cycle;Signal;HPM_P1;HPM_P2
2023/01/07 00:00:02;;;;;;;11.70;6.47;;;;;;;;;;5077474;28;20444;-73
2023/01/07 00:02:37;;;;;;;14.00;6.63;;;;;;;;;;5077794;28;20461;-73
2023/01/07 00:05:10;;;;;;;11.33;6.80;;;;;;;;;;5077475;28;20467;-72
2023/01/07 00:07:53;;;;;;;11.73;6.67;;;;;;;;;;5077524;28;20547;-73
2023/01/07 00:10:21;;;;;;;14.77;8.00;;;;;;;;;;5077030;28;20527;-73
2023/01/07 00:13:06;;;;;;;12.80;7.83;;;;;;;;;;5077303;28;20457;-73
2023/01/07 00:16:04;;;;;;;10.50;6.10;;;;;;;;;;5076865;28;20499;-72
2023/01/07 00:18:34;;;;;;;11.80;7.07;;;;;;;;;;5076785;28;20551;-73
2023/01/07 00:21:06;;;;;;;11.27;6.70;;;;;;;;;;5077426;28;20460;-73
2023/01/07 00:23:35;;;;;;;13.20;8.13;;;;;;;;;;5076026;28;20560;-73
2023/01/07 00:26:04;;;;;;;15.17;8.20;;;;;;;;;;5076708;28;20728;-73
2023/01/07 00:28:32;;;;;;;13.40;8.20;;;;;;;;;;5076531;28;20502;-73
2023/01/07 00:31:03;;;;;;;13.17;8.00;;;;;;;;;;5074043;28;20483;-73
2023/01/07 00:33:33;;;;;;;12.90;7.60;;;;;;;;;;5076514;28;20961;-73
2023/01/07 00:36:19;;;;;;;17.40;8.83;;;;;;;;;;5064081;28;20883;-73
2023/01/07 00:39:04;;;;;;;11.80;8.23;;;;;;;;;;5075775;28;20467;-73
2023/01/07 00:41:32;;;;;;;18.40;10.00;;;;;;;;;;5075950;28;20463;-73
2023/01/07 00:44:03;;;;;;;15.27;9.97;;;;;;;;;;5076223;28;20478;-72
2023/01/07 00:46:31;;;;;;;16.40;8.80;;;;;;;;;;5076035;28;20869;-72
2023/01/07 00:49:00;;;;;;;16.30;9.63;;;;;;;;;;5075204;28;20484;-73
2023/01/07 00:51:29;;;;;;;16.57;8.50;;;;;;;;;;5076080;28;20476;-73
2023/01/07 00:53:57;;;;;;;17.47;9.80;;;;;;;;;;5076748;28;20534;-72
2023/01/07 00:56:25;;;;;;;18.37;10.80;;;;;;;;;;5076611;28;20484;-72
2023/01/07 00:59:07;;;;;;;14.60;10.33;;;;;;;;;;5076076;28;20470;-72
2023/01/07 01:01:38;;;;;;;18.93;9.90;;;;;;;;;;5074763;28;20514;-73
2023/01/07 01:04:39;;;;;;;19.03;9.40;;;;;;;;;;5076197;28;20453;-73
2023/01/07 01:07:08;;;;;;;20.43;9.97;;;;;;;;;;5076216;28;20467;-73
2023/01/07 01:09:36;;;;;;;18.90;10.23;;;;;;;;;;5076942;28;20915;-73
2023/01/07 01:12:04;;;;;;;19.10;9.77;;;;;;;;;;5077267;28;20504;-73
2023/01/07 01:17:35;;;;;;;21.20;12.17;;;;;;;;;;5065866;28;20431;-73
2023/01/07 01:20:03;;;;;;;22.60;12.43;;;;;;;;;;5074714;28;20468;-73
2023/01/07 01:22:33;;;;;;;18.90;12.07;;;;;;;;;;5069456;28;20467;-73
2023/01/07 01:25:02;;;;;;;20.03;10.93;;;;;;;;;;5057742;28;20453;-73
2023/01/07 01:27:30;;;;;;;21.43;11.87;;;;;;;;;;5055976;28;20464;-73
2023/01/07 01:29:58;;;;;;;27.30;14.07;;;;;;;;;;5056957;28;20926;-73
2023/01/07 01:32:25;;;;;;;18.77;13.03;;;;;;;;;;5055899;28;20480;-73
2023/01/07 01:34:53;;;;;;;21.30;13.33;;;;;;;;;;5056254;28;20469;-73
2023/01/07 01:37:21;;;;;;;24.33;12.47;;;;;;;;;;5056435;28;20562;-73
2023/01/07 01:40:02;;;;;;;25.50;12.10;;;;;;;;;;5056127;28;20465;-73
2023/01/07 01:42:30;;;;;;;30.57;14.63;;;;;;;;;;5055474;28;20509;-73
2023/01/07 01:45:02;;;;;;;21.00;12.13;;;;;;;;;;5056041;28;20493;-73
2023/01/07 01:50:35;;;;;;;20.53;13.03;;;;;;;;;;5056037;28;20768;-72
2023/01/07 01:53:04;;;;;;;24.87;12.53;;;;;;;;;;5055760;28;20465;-73
2023/01/07 01:55:36;;;;;;;22.53;12.73;;;;;;;;;;5055572;28;20461;-73
2023/01/07 01:58:06;;;;;;;24.30;12.60;;;;;;;;;;5056207;28;20469;-72
2023/01/07 02:03:38;;;;;;;19.83;12.90;;;;;;;;;;5062957;28;20455;-73
2023/01/07 02:06:07;;;;;;;24.23;13.20;;;;;;;;;;5062376;28;20457;-73
2023/01/07 02:08:34;;;;;;;24.00;11.83;;;;;;;;;;5063008;28;20457;-73
2023/01/07 02:11:09;;;;;;;21.87;12.67;;;;;;;;;;5061822;28;20827;-73
2023/01/07 02:17:19;;;;;;;26.90;14.53;;;;;;;;;;5057160;28;20452;-74
2023/01/07 02:20:27;;;;;;;24.70;13.40;;;;;;;;;;5062093;28;20484;-73
2023/01/07 02:23:14;;;;;;;23.17;13.60;;;;;;;;;;5062246;28;21014;-73
2023/01/07 02:26:05;;;;;;;26.77;13.63;;;;;;;;;;5062233;28;20552;-73
2023/01/07 02:34:44;;;;;;;24.50;13.60;;;;;;;;;;5054492;28;20567;-73
2023/01/07 02:37:13;;;;;;;27.13;13.23;;;;;;;;;;5062549;28;20733;-73
2023/01/07 02:39:48;;;;;;;23.07;13.50;;;;;;;;;;5062521;28;20459;-73
2023/01/07 02:42:36;;;;;;;22.57;13.50;;;;;;;;;;5062757;28;20461;-73
2023/01/07 02:45:05;;;;;;;25.67;13.90;;;;;;;;;;5063246;28;20457;-73
2023/01/07 02:47:35;;;;;;;21.63;12.63;;;;;;;;;;5062051;28;20460;-73
2023/01/07 02:50:05;;;;;;;27.20;14.43;;;;;;;;;;5063625;28;20782;-73
2023/01/07 02:52:34;;;;;;;23.80;13.70;;;;;;;;;;5062258;28;20849;-72
2023/01/07 02:55:05;;;;;;;24.23;12.50;;;;;;;;;;5062448;28;20732;-72
2023/01/07 02:57:50;;;;;;;22.60;14.93;;;;;;;;;;5062031;28;20463;-73
2023/01/07 03:00:58;;;;;;;22.50;12.00;;;;;;;;;;5049291;28;20869;-72
2023/01/07 03:03:33;;;;;;;20.00;12.20;;;;;;;;;;5061522;28;20465;-73
2023/01/07 03:06:40;;;;;;;19.90;11.47;;;;;;;;;;5061856;28;20876;-72
2023/01/07 03:09:11;;;;;;;21.40;12.83;;;;;;;;;;5061958;28;20498;-73
2023/01/07 03:11:43;;;;;;;23.40;13.63;;;;;;;;;;5062464;28;20547;-73
2023/01/07 03:14:30;;;;;;;22.20;11.80;;;;;;;;;;5057995;28;20461;-72
2023/01/07 03:17:01;;;;;;;19.90;10.80;;;;;;;;;;5058441;28;20458;-73
2023/01/07 03:19:33;;;;;;;22.70;12.87;;;;;;;;;;5058496;28;20555;-72
2023/01/07 03:22:03;;;;;;;23.03;14.27;;;;;;;;;;5059246;28;20866;-73
2023/01/07 03:24:49;;;;;;;21.30;11.80;;;;;;;;;;5057953;28;20457;-72
2023/01/07 03:27:42;;;;;;;18.47;11.17;;;;;;;;;;5068613;28;20540;-73
2023/01/07 03:33:23;;;;;;;18.50;11.90;;;;;;;;;;5079204;28;20435;-73
2023/01/07 03:36:18;;;;;;;22.70;13.17;;;;;;;;;;5078286;28;20451;-73
2023/01/07 03:39:22;;;;;;;18.47;12.43;;;;;;;;;;5078718;28;20470;-72
2023/01/07 03:44:42;;;;;;;21.70;12.23;;;;;;;;;;5077951;28;20490;-72
2023/01/07 03:47:10;;;;;;;16.87;11.20;;;;;;;;;;5077955;28;20459;-73
2023/01/07 03:49:40;;;;;;;21.43;12.07;;;;;;;;;;5077859;28;20826;-73
2023/01/07 03:52:07;;;;;;;21.57;12.30;;;;;;;;;;5077974;28;20546;-73
2023/01/07 03:55:09;;;;;;;16.67;11.00;;;;;;;;;;5078361;28;20475;-73
2023/01/07 03:57:40;;;;;;;19.30;11.57;;;;;;;;;;5078750;28;20460;-73
2023/01/07 04:00:11;;;;;;;19.87;11.00;;;;;;;;;;5077089;28;20490;-73
2023/01/07 04:02:38;;;;;;;19.50;11.33;;;;;;;;;;5077977;28;20748;-72
2023/01/07 04:05:06;;;;;;;20.17;12.33;;;;;;;;;;5077803;28;20488;-73
2023/01/07 04:07:40;;;;;;;19.10;11.10;;;;;;;;;;5077960;28;20853;-73
2023/01/07 04:10:08;;;;;;;19.53;11.70;;;;;;;;;;5078674;28;20530;-73
2023/01/07 04:12:36;;;;;;;20.37;10.57;;;;;;;;;;5077743;28;20465;-73
2023/01/07 04:15:05;;;;;;;20.07;11.80;;;;;;;;;;5077022;28;20476;-73
2023/01/07 04:17:33;;;;;;;17.90;10.83;;;;;;;;;;5078186;28;20453;-72
2023/01/07 04:20:01;;;;;;;21.27;13.40;;;;;;;;;;5077861;28;20472;-73
2023/01/07 04:22:28;;;;;;;21.90;12.40;;;;;;;;;;5078601;28;20559;-73
2023/01/07 04:25:14;;;;;;;15.73;10.93;;;;;;;;;;5076904;28;20849;-73
2023/01/07 04:27:42;;;;;;;18.53;11.63;;;;;;;;;;5077602;28;20469;-73
2023/01/07 04:30:12;;;;;;;20.50;12.80;;;;;;;;;;5076977;28;20484;-73
2023/01/07 04:32:41;;;;;;;20.63;12.57;;;;;;;;;;5077287;28;20868;-73
2023/01/07 04:35:09;;;;;;;19.93;11.53;;;;;;;;;;5077078;28;20495;-73
2023/01/07 04:37:36;;;;;;;21.40;12.90;;;;;;;;;;5076663;28;20511;-73
2023/01/07 04:40:21;;;;;;;21.23;12.80;;;;;;;;;;5077260;28;20457;-73
2023/01/07 04:43:04;;;;;;;17.90;11.80;;;;;;;;;;5076895;28;20475;-73
2023/01/07 04:45:33;;;;;;;17.93;11.17;;;;;;;;;;5076964;28;20482;-73
2023/01/07 04:48:01;;;;;;;17.83;11.33;;;;;;;;;;5076613;28;20468;-73
2023/01/07 04:50:28;;;;;;;21.47;13.90;;;;;;;;;;5076170;28;20512;-73
2023/01/07 04:53:02;;;;;;;21.07;14.40;;;;;;;;;;5076642;28;20495;-73
2023/01/07 04:55:30;;;;;;;22.13;14.40;;;;;;;;;;5076646;28;20919;-73
2023/01/07 04:57:57;;;;;;;20.53;12.83;;;;;;;;;;5076653;28;20460;-73
2023/01/07 05:00:25;;;;;;;21.47;15.17;;;;;;;;;;5075434;28;20802;-73
2023/01/07 05:03:10;;;;;;;22.50;13.63;;;;;;;;;;5076502;28;20460;-73
2023/01/07 05:05:37;;;;;;;20.73;12.97;;;;;;;;;;5078564;28;20464;-72
2023/01/07 05:08:05;;;;;;;19.47;13.27;;;;;;;;;;5076600;28;20500;-72
2023/01/07 05:10:35;;;;;;;18.63;12.50;;;;;;;;;;5075017;28;20594;-73
2023/01/07 05:13:04;;;;;;;21.43;14.50;;;;;;;;;;5076239;28;20470;-73
2023/01/07 05:15:32;;;;;;;20.70;12.90;;;;;;;;;;5076688;28;20558;-73
2023/01/07 05:18:19;;;;;;;17.73;11.67;;;;;;;;;;5076344;28;20564;-73
2023/01/07 05:20:50;;;;;;;21.87;13.80;;;;;;;;;;5074881;28;20559;-72
2023/01/07 05:23:17;;;;;;;18.90;11.87;;;;;;;;;;5076131;28;20530;-73
2023/01/07 05:25:45;;;;;;;19.30;12.50;;;;;;;;;;5076041;28;20543;-73
2023/01/07 05:31:16;;;;;;;18.17;11.73;;;;;;;;;;5075777;28;20560;-73
2023/01/07 05:33:45;;;;;;;18.37;12.60;;;;;;;;;;5076560;28;20468;-73
2023/01/07 05:36:13;;;;;;;20.90;13.43;;;;;;;;;;5074952;28;20452;-73
2023/01/07 05:39:08;;;;;;;17.90;12.07;;;;;;;;;;5076074;28;20569;-73
2023/01/07 05:41:36;;;;;;;18.90;11.50;;;;;;;;;;5076050;28;20564;-73
2023/01/07 05:44:06;;;;;;;17.93;11.70;;;;;;;;;;5074740;28;20460;-73
2023/01/07 05:46:43;;;;;;;16.83;10.93;;;;;;;;;;5075937;28;20464;-73
2023/01/07 05:49:12;;;;;;;17.40;11.07;;;;;;;;;;5076196;28;20935;-73
2023/01/07 05:51:40;;;;;;;19.80;12.10;;;;;;;;;;5075953;28;20500;-73
2023/01/07 05:54:23;;;;;;;16.77;11.90;;;;;;;;;;5076949;28;20879;-73
2023/01/07 05:57:10;;;;;;;15.67;11.50;;;;;;;;;;5076017;28;20496;-73
2023/01/07 05:59:37;;;;;;;15.87;10.80;;;;;;;;;;5073004;28;20468;-74
2023/01/07 06:02:05;;;;;;;16.20;10.90;;;;;;;;;;5076748;28;20445;-73
2023/01/07 06:04:34;;;;;;;14.50;10.07;;;;;;;;;;5076092;28;20707;-74
2023/01/07 06:07:19;;;;;;;14.97;10.63;;;;;;;;;;5076596;28;20464;-74
2023/01/07 06:09:46;;;;;;;16.27;11.00;;;;;;;;;;5073756;28;20571;-74
2023/01/07 06:12:14;;;;;;;16.67;11.97;;;;;;;;;;5075709;28;20543;-73
2023/01/07 06:14:41;;;;;;;17.50;11.27;;;;;;;;;;5075251;28;20463;-73
2023/01/07 06:20:16;;;;;;;14.33;9.63;;;;;;;;;;5075204;28;20407;-73
2023/01/07 06:22:54;;;;;;;12.77;9.33;;;;;;;;;;5075845;28;20452;-73
2023/01/07 06:25:22;;;;;;;14.60;9.80;;;;;;;;;;5074841;28;20443;-73
2023/01/07 06:28:07;;;;;;;14.77;9.70;;;;;;;;;;5074891;28;20474;-73
2023/01/07 06:30:38;;;;;;;12.53;9.40;;;;;;;;;;5074339;28;20838;-73
2023/01/07 06:36:16;;;;;;;18.23;10.37;;;;;;;;;;5075921;28;20427;-74
2023/01/07 06:39:00;;;;;;;11.63;9.23;;;;;;;;;;5075330;28;20456;-73
2023/01/07 06:41:40;;;;;;;12.80;10.23;;;;;;;;;;5074305;28;20516;-73
2023/01/07 06:44:10;;;;;;;13.27;9.27;;;;;;;;;;5075025;28;20750;-73
2023/01/07 06:46:37;;;;;;;10.50;8.27;;;;;;;;;;5074094;28;20460;-74
2023/01/07 06:49:05;;;;;;;13.80;8.70;;;;;;;;;;5078209;28;20448;-73
2023/01/07 06:51:33;;;;;;;12.77;9.53;;;;;;;;;;5078092;28;20503;-74
2023/01/07 06:54:04;;;;;;;12.80;10.13;;;;;;;;;;5078654;28;21021;-74
2023/01/07 06:56:32;;;;;;;11.90;9.10;;;;;;;;;;5078670;28;20456;-74
2023/01/07 06:59:12;;;;;;;10.60;8.00;;;;;;;;;;5078237;28;20460;-74
2023/01/07 07:01:40;;;;;;;13.17;9.30;;;;;;;;;;5078015;28;20463;-74
2023/01/07 07:04:08;;;;;;;12.77;9.67;;;;;;;;;;5079201;28;20944;-73
2023/01/07 07:06:35;;;;;;;10.47;7.53;;;;;;;;;;5077411;28;20464;-73
2023/01/07 07:09:24;;;;;;;12.53;8.37;;;;;;;;;;5064378;28;20449;-74
2023/01/07 07:11:53;;;;;;;12.10;8.60;;;;;;;;;;5039181;28;20981;-73
2023/01/07 07:14:20;;;;;;;12.07;8.70;;;;;;;;;;5058141;28;20471;-73
2023/01/07 07:16:48;;;;;;;10.80;8.20;;;;;;;;;;5058605;28;20835;-73
2023/01/07 07:19:32;;;;;;;9.97;8.33;;;;;;;;;;5076769;28;20571;-73
2023/01/07 07:22:01;;;;;;;12.03;9.40;;;;;;;;;;5077285;28;20465;-74
2023/01/07 07:24:29;;;;;;;10.63;8.10;;;;;;;;;;5069837;28;20472;-73
2023/01/07 07:27:08;;;;;;;13.97;9.33;;;;;;;;;;5069209;28;20462;-73
2023/01/07 07:29:38;;;;;;;14.53;9.10;;;;;;;;;;5057769;28;20461;-74
2023/01/07 07:32:07;;;;;;;14.37;8.77;;;;;;;;;;5058541;28;20485;-73
2023/01/07 07:37:55;;;;;;;12.37;8.70;;;;;;;;;;5077055;28;20419;-73
2023/01/07 07:40:35;;;;;;;14.00;9.40;;;;;;;;;;5063028;28;20524;-73
2023/01/07 07:43:05;;;;;;;15.23;10.40;;;;;;;;;;5074021;28;20475;-73
2023/01/07 07:45:32;;;;;;;12.70;9.70;;;;;;;;;;5076869;28;20453;-73
2023/01/07 07:48:03;;;;;;;14.50;9.57;;;;;;;;;;5076480;28;20575;-73
2023/01/07 07:50:38;;;;;;;13.40;10.13;;;;;;;;;;5077713;28;20485;-73
2023/01/07 07:53:09;;;;;;;11.40;7.90;;;;;;;;;;5077797;28;20448;-73
2023/01/07 07:55:37;;;;;;;13.37;8.83;;;;;;;;;;5076498;28;20457;-73
2023/01/07 08:01:10;;;;;;;14.03;8.53;;;;;;;;;;5077332;28;20407;-73
2023/01/07 08:03:37;;;;;;;11.20;7.90;;;;;;;;;;5076281;28;20551;-73
2023/01/07 08:06:08;;;;;;;19.73;12.93;;;;;;;;;;5075877;28;20491;-73
2023/01/07 08:08:36;;;;;;;10.63;7.43;;;;;;;;;;5071263;28;20467;-72
2023/01/07 08:11:03;;;;;;;10.40;7.20;;;;;;;;;;5076778;28;20538;-72
2023/01/07 08:16:36;;;;;;;9.67;6.87;;;;;;;;;;5076172;28;20419;-72
2023/01/07 08:19:04;;;;;;;10.17;7.90;;;;;;;;;;5060835;28;20469;-72
2023/01/07 08:21:34;;;;;;;10.50;7.90;;;;;;;;;;5056595;28;20469;-73
2023/01/07 08:24:05;;;;;;;9.53;7.83;;;;;;;;;;5056858;28;20523;-73
2023/01/07 08:29:40;;;;;;;7.53;6.27;;;;;;;;;;5056348;28;20414;-72
2023/01/07 08:32:09;;;;;;;10.50;5.70;;;;;;;;;;5073909;28;20499;-72
2023/01/07 08:34:40;;;;;;;9.97;6.90;;;;;;;;;;5076487;28;20852;-73
2023/01/07 08:37:10;;;;;;;7.87;4.80;;;;;;;;;;5074163;28;20461;-73
2023/01/07 08:40:04;;;;;;;9.13;6.07;;;;;;;;;;5057864;28;20472;-73
2023/01/07 08:42:57;;;;;;;6.30;4.53;;;;;;;;;;5064466;28;20504;-73
2023/01/07 08:45:29;;;;;;;7.03;5.50;;;;;;;;;;5063292;28;20477;-73
2023/01/07 08:48:01;;;;;;;8.97;5.90;;;;;;;;;;5067243;28;20959;-73
2023/01/07 08:50:43;;;;;;;5.23;4.30;;;;;;;;;;5057593;28;21262;-72
2023/01/07 08:53:13;;;;;;;6.07;5.13;;;;;;;;;;5064904;28;20563;-74
2023/01/07 08:55:44;;;;;;;8.57;4.27;;;;;;;;;;5055747;28;20532;-74
2023/01/07 08:58:16;;;;;;;8.30;6.10;;;;;;;;;;5073208;28;20475;-74
2023/01/07 09:01:02;;;;;;;7.10;5.30;;;;;;;;;;5064551;28;20469;-73
2023/01/07 09:03:35;;;;;;;6.30;4.43;;;;;;;;;;5064923;28;20570;-74
2023/01/07 09:12:10;;;;;;;5.50;3.27;;;;;;;;;;5057887;28;20537;-73
2023/01/07 09:15:16;;;;;;;6.70;6.00;;;;;;;;;;5074861;28;20478;-73
2023/01/07 09:17:46;;;;;;;5.87;3.80;;;;;;;;;;5074117;28;20543;-73
2023/01/07 09:23:26;;;;;;;5.90;3.70;;;;;;;;;;5071818;28;20429;-74
2023/01/07 09:26:36;;;;;;;6.13;3.87;;;;;;;;;;5056975;28;20547;-74
2023/01/07 09:32:07;;;;;;;6.33;3.30;;;;;;;;;;5074590;28;20490;-73
2023/01/07 09:37:48;;;;;;;6.00;3.20;;;;;;;;;;5074894;28;20530;-75
2023/01/07 09:40:38;;;;;;;4.97;3.43;;;;;;;;;;5075539;28;20500;-73
2023/01/07 09:43:26;;;;;;;3.73;2.70;;;;;;;;;;5074648;28;20492;-73
2023/01/07 09:48:25;;;;;;;7.73;3.07;;;;;;;;;;5055335;28;20833;-73
2023/01/07 09:54:33;;;;;;;3.30;2.10;;;;;;;;;;4987466;28;20463;-73
2023/01/07 10:05:53;;;;;;;4.23;2.47;;;;;;;;;;5068570;28;20468;-74
2023/01/07 10:23:05;;;;;;;2.90;2.30;;;;;;;;;;5061861;28;20444;-74
2023/01/07 10:26:11;;;;;;;3.00;2.23;;;;;;;;;;5055992;28;20556;-74
2023/01/07 10:35:23;;;;;;;2.90;2.03;;;;;;;;;;4997466;28;20520;-73
2023/01/07 10:43:00;;;;;;;2.87;1.40;;;;;;;;;;5072444;28;20631;-76
2023/01/07 10:45:57;;;;;;;4.33;1.40;;;;;;;;;;5077527;28;20217;-72
2023/01/07 10:58:06;;;;;;;3.30;1.70;;;;;;;;;;5059388;28;20452;-72
2023/01/07 11:00:39;;;;;;;3.30;1.97;;;;;;;;;;5056830;28;20761;-72
2023/01/07 11:03:17;;;;;;;5.10;3.47;;;;;;;;;;5067678;28;20457;-71
2023/01/07 11:08:48;;;;;;;3.70;2.07;;;;;;;;;;5056834;28;20695;-72
2023/01/07 11:11:17;;;;;;;5.63;3.53;;;;;;;;;;5049415;28;20462;-72
2023/01/07 11:16:52;;;;;;;4.53;1.77;;;;;;;;;;5056270;28;20440;-72
2023/01/07 11:19:22;;;;;;;3.20;2.10;;;;;;;;;;5062051;28;20476;-72
2023/01/07 11:25:00;;;;;;;3.50;1.83;;;;;;;;;;5061263;28;20464;-72
2023/01/07 11:30:45;;;;;;;3.40;1.60;;;;;;;;;;5060562;28;20445;-73
2023/01/07 11:48:34;;;;;;;2.30;1.40;;;;;;;;;;5072733;28;20748;-74
2023/01/07 11:51:03;;;;;;;2.97;1.30;;;;;;;;;;5058015;28;20785;-76
2023/01/07 11:53:37;;;;;;;2.00;1.07;;;;;;;;;;5062572;28;20495;-74
2023/01/07 12:02:28;;;;;;;3.57;1.80;;;;;;;;;;5062422;28;20800;-74
2023/01/07 12:05:16;;;;;;;3.20;2.20;;;;;;;;;;5072527;28;20461;-74
2023/01/07 12:10:45;;;;;;;4.20;2.47;;;;;;;;;;5074439;28;20488;-74
2023/01/07 12:13:24;;;;;;;3.97;2.23;;;;;;;;;;5077053;28;20492;-73
2023/01/07 12:15:56;;;;;;;3.63;3.00;;;;;;;;;;5076513;28;20533;-75
2023/01/07 12:24:44;;;;;;;4.73;4.23;;;;;;;;;;5075553;28;20480;-75
2023/01/07 12:30:48;;;;;;;7.47;3.40;;;;;;;;;;5048789;28;20461;-73
2023/01/07 12:47:59;;;;;;;4.20;1.43;;;;;;;;;;5062037;28;20234;-74
2023/01/07 12:56:28;;;;;;;3.10;1.43;;;;;;;;;;5076241;28;20463;-73
2023/01/07 12:58:58;;;;;;;4.37;2.33;;;;;;;;;;5075975;28;20468;-72
2023/01/07 13:01:32;;;;;;;3.93;2.63;;;;;;;;;;5074842;28;20719;-72
2023/01/07 13:04:10;;;;;;;3.73;2.50;;;;;;;;;;5084247;27;20466;-73
2023/01/07 13:07:05;;;;;;;3.10;2.30;;;;;;;;;;5089606;28;20452;-73
2023/01/07 13:12:46;;;;;;;5.03;4.53;;;;;;;;;;5088387;28;20494;-73
2023/01/07 13:18:19;;;;;;;6.43;4.07;;;;;;;;;;5068407;28;20472;-73
2023/01/07 13:24:20;;;;;;;4.07;2.73;;;;;;;;;;5093315;27;20454;-73
2023/01/07 13:30:22;;;;;;;5.33;2.63;;;;;;;;;;5027284;28;20443;-74
2023/01/07 13:33:15;;;;;;;5.10;2.33;;;;;;;;;;5072503;28;20490;-73
2023/01/07 13:38:52;;;;;;;2.27;1.27;;;;;;;;;;5067517;28;20459;-73
2023/01/07 13:41:42;;;;;;;6.87;2.57;;;;;;;;;;5018382;28;20473;-73
2023/01/07 13:44:39;;;;;;;3.23;1.90;;;;;;;;;;5055593;28;20534;-72
2023/01/07 13:52:42;;;;;;;5.37;2.80;;;;;;;;;;5056149;28;20221;-73
2023/01/07 13:55:25;;;;;;;3.23;2.23;;;;;;;;;;5055231;28;20458;-73
2023/01/07 14:00:38;;;;;;;3.73;2.27;;;;;;;;;;5059455;28;20594;-73
2023/01/07 14:03:26;;;;;;;3.63;2.17;;;;;;;;;;5097759;28;20237;-73
2023/01/07 14:09:33;;;;;;;2.50;1.53;;;;;;;;;;5083374;28;20454;-73
2023/01/07 14:12:22;;;;;;;5.00;1.70;;;;;;;;;;5074645;28;20496;-73
2023/01/07 14:14:55;;;;;;;4.27;2.00;;;;;;;;;;5091234;28;20540;-74
2023/01/07 14:17:46;;;;;;;2.93;1.70;;;;;;;;;;5094241;28;20444;-73
2023/01/07 14:31:31;;;;;;;2.40;1.50;;;;;;;;;;5054024;28;20209;-72
2023/01/07 14:34:24;;;;;;;3.27;2.10;;;;;;;;;;5055307;28;20471;-72
2023/01/07 14:37:13;;;;;;;4.80;2.27;;;;;;;;;;5056102;28;20465;-72
2023/01/07 14:39:41;;;;;;;5.07;2.70;;;;;;;;;;5071210;28;20453;-72
2023/01/07 14:45:31;;;;;;;4.20;1.80;;;;;;;;;;5075340;28;20530;-72
2023/01/07 14:48:07;;;;;;;3.63;2.20;;;;;;;;;;5072634;28;20483;-73
2023/01/07 14:56:47;;;;;;;3.40;1.90;;;;;;;;;;5066420;28;20455;-72
2023/01/07 14:59:37;;;;;;;5.50;3.00;;;;;;;;;;5074508;28;20593;-73
2023/01/07 15:17:02;;;;;;;3.70;1.93;;;;;;;;;;5068954;28;20468;-73
2023/01/07 15:20:14;;;;;;;3.93;2.40;;;;;;;;;;5071809;28;20537;-72
2023/01/07 15:23:12;;;;;;;6.03;2.60;;;;;;;;;;5067213;28;20468;-73
2023/01/07 15:25:49;;;;;;;2.90;1.50;;;;;;;;;;5058906;28;20486;-72
2023/01/07 15:42:31;;;;;;;6.80;3.70;;;;;;;;;;5054099;28;20621;-73
2023/01/07 15:45:04;;;;;;;5.10;2.77;;;;;;;;;;5058018;28;20473;-74
2023/01/07 15:48:05;;;;;;;4.83;3.60;;;;;;;;;;5037820;28;20519;-74
2023/01/07 15:50:47;;;;;;;2.50;1.60;;;;;;;;;;5056055;28;20991;-73
2023/01/07 15:53:20;;;;;;;3.63;2.43;;;;;;;;;;5046650;28;20540;-73
2023/01/07 15:58:53;;;;;;;4.20;1.93;;;;;;;;;;5036573;28;20921;-73
2023/01/07 16:01:21;;;;;;;3.80;2.77;;;;;;;;;;5036930;28;20894;-73
2023/01/07 16:04:26;;;;;;;3.17;1.60;;;;;;;;;;5037119;28;20500;-73
2023/01/07 16:43:20;;;;;;;4.50;2.80;;;;;;;;;;5072755;28;20507;-73
2023/01/07 17:11:10;;;;;;;;;;;;;;;;;;;;;
2023/01/07 17:22:44;;;;;;;16.90;7.70;;;;;;;;;;5012850;22;21002;-81
2023/01/07 17:25:12;;;;;;;9.80;4.50;;;;;;;;;;5083149;28;20456;-81
2023/01/07 17:27:44;;;;;;;11.50;5.47;;;;;;;;;;5080131;28;20700;-83
2023/01/07 17:30:16;;;;;;;5.70;2.57;;;;;;;;;;5084998;28;20459;-82
2023/01/07 17:32:46;;;;;;;9.90;6.40;;;;;;;;;;5083850;28;21145;-81
2023/01/07 17:35:17;;;;;;;3.87;1.63;;;;;;;;;;5083505;28;20452;-82
2023/01/07 17:37:45;;;;;;;5.83;2.40;;;;;;;;;;5065974;28;20458;-82
2023/01/07 17:40:14;;;;;;;3.60;1.93;;;;;;;;;;5072522;28;20516;-82
2023/01/07 17:45:31;;;;;;;2.13;1.30;;;;;;;;;;5069254;28;20436;-80
2023/01/07 17:48:00;;;;;;;3.47;1.87;;;;;;;;;;5066417;28;20449;-80
2023/01/07 17:50:29;;;;;;;7.03;3.10;;;;;;;;;;5067033;28;20472;-81
2023/01/07 17:52:57;;;;;;;5.20;3.40;;;;;;;;;;5069280;28;20494;-80
2023/01/07 17:55:27;;;;;;;5.20;2.77;;;;;;;;;;5083723;28;20918;-82
2023/01/07 17:57:56;;;;;;;5.37;2.60;;;;;;;;;;5081917;28;20464;-80
2023/01/07 18:00:24;;;;;;;8.07;3.93;;;;;;;;;;5084455;28;20477;-81
2023/01/07 18:02:52;;;;;;;15.30;7.50;;;;;;;;;;5085206;28;20467;-80
2023/01/07 18:05:21;;;;;;;10.97;6.63;;;;;;;;;;5086462;28;20512;-82
2023/01/07 18:07:49;;;;;;;6.47;3.57;;;;;;;;;;5085111;28;20775;-82
2023/01/07 18:10:17;;;;;;;12.80;3.30;;;;;;;;;;5084430;28;20703;-81
2023/01/07 18:12:44;;;;;;;7.60;3.27;;;;;;;;;;5079381;28;20476;-80
2023/01/07 18:15:18;;;;;;;8.40;4.30;;;;;;;;;;5086639;28;20530;-81
2023/01/07 18:17:45;;;;;;;5.40;2.93;;;;;;;;;;5085565;28;20774;-79
2023/01/07 18:20:13;;;;;;;10.87;4.67;;;;;;;;;;5088131;28;20445;-81
2023/01/07 18:22:41;;;;;;;6.67;3.20;;;;;;;;;;5082191;28;20467;-80
2023/01/07 18:25:15;;;;;;;9.27;4.73;;;;;;;;;;5086887;28;20463;-80
2023/01/07 18:27:42;;;;;;;7.67;3.93;;;;;;;;;;5074949;28;20876;-80
2023/01/07 18:30:12;;;;;;;8.07;3.00;;;;;;;;;;5063757;28;20453;-79
2023/01/07 18:32:41;;;;;;;5.13;2.77;;;;;;;;;;5067915;28;20462;-80
2023/01/07 18:35:09;;;;;;;7.50;3.33;;;;;;;;;;5064650;28;20445;-79
2023/01/07 18:37:37;;;;;;;11.43;5.27;;;;;;;;;;5065260;28;20469;-80
2023/01/07 18:40:05;;;;;;;10.10;3.93;;;;;;;;;;5066742;28;20469;-80
2023/01/07 18:42:34;;;;;;;9.37;4.73;;;;;;;;;;5061588;28;20469;-80
2023/01/07 18:45:02;;;;;;;7.10;3.87;;;;;;;;;;5062363;28;20466;-79
2023/01/07 18:47:30;;;;;;;6.03;3.57;;;;;;;;;;5063680;28;20908;-78
2023/01/07 18:49:59;;;;;;;7.73;3.03;;;;;;;;;;5063361;28;20465;-79
2023/01/07 18:52:26;;;;;;;7.17;4.70;;;;;;;;;;5062809;28;20474;-79
2023/01/07 18:54:54;;;;;;;4.83;2.40;;;;;;;;;;5062451;28;20481;-79
2023/01/07 18:57:22;;;;;;;8.40;3.30;;;;;;;;;;5063787;28;20468;-79
2023/01/07 18:59:49;;;;;;;5.07;2.97;;;;;;;;;;5065086;28;20453;-79
2023/01/07 19:02:17;;;;;;;13.10;5.40;;;;;;;;;;5065895;28;20458;-79
2023/01/07 19:04:45;;;;;;;6.63;3.17;;;;;;;;;;5085266;28;20464;-80
2023/01/07 19:07:14;;;;;;;11.17;5.37;;;;;;;;;;5082385;28;20468;-79
2023/01/07 19:09:41;;;;;;;12.60;5.30;;;;;;;;;;5083858;28;20456;-80
2023/01/07 19:12:10;;;;;;;13.57;7.60;;;;;;;;;;5084811;28;20472;-79
2023/01/07 19:14:37;;;;;;;10.57;5.83;;;;;;;;;;5093064;28;20569;-79
2023/01/07 19:17:06;;;;;;;8.17;4.77;;;;;;;;;;5104141;27;20462;-79
2023/01/07 19:19:34;;;;;;;7.30;4.10;;;;;;;;;;5103071;27;20770;-79
2023/01/07 19:22:01;;;;;;;5.60;3.67;;;;;;;;;;5103638;27;20462;-80
2023/01/07 19:24:30;;;;;;;7.83;4.47;;;;;;;;;;5103710;27;20527;-79
2023/01/07 19:26:58;;;;;;;7.17;3.53;;;;;;;;;;5105641;28;20450;-80
2023/01/07 19:29:26;;;;;;;5.53;2.57;;;;;;;;;;5105243;27;20455;-80
2023/01/07 19:31:53;;;;;;;4.40;2.70;;;;;;;;;;5104014;27;20459;-80
2023/01/07 19:34:21;;;;;;;5.33;3.60;;;;;;;;;;5105600;27;20494;-80
2023/01/07 19:36:48;;;;;;;4.87;3.40;;;;;;;;;;5104684;27;20546;-80
2023/01/07 19:39:17;;;;;;;4.10;2.30;;;;;;;;;;5104349;27;20459;-80
2023/01/07 19:41:46;;;;;;;5.90;2.83;;;;;;;;;;5102808;27;20448;-80
2023/01/07 19:44:13;;;;;;;4.00;2.03;;;;;;;;;;5105519;27;20767;-80
2023/01/07 19:46:42;;;;;;;4.33;2.70;;;;;;;;;;5103244;27;20463;-80
2023/01/07 19:49:10;;;;;;;5.80;3.30;;;;;;;;;;5102786;27;20467;-79
2023/01/07 19:51:39;;;;;;;5.80;4.40;;;;;;;;;;5103356;27;20467;-80
2023/01/07 19:54:07;;;;;;;4.73;3.10;;;;;;;;;;5103346;27;20473;-79
2023/01/07 19:56:35;;;;;;;3.87;2.40;;;;;;;;;;5102980;27;20859;-79
2023/01/07 19:59:04;;;;;;;3.50;1.67;;;;;;;;;;5103565;27;20956;-80
2023/01/07 20:01:32;;;;;;;6.10;2.43;;;;;;;;;;5102363;27;20735;-80
2023/01/07 20:03:59;;;;;;;5.00;2.10;;;;;;;;;;5102921;27;20471;-80
2023/01/07 20:06:28;;;;;;;5.20;2.00;;;;;;;;;;5101488;27;20559;-79
2023/01/07 20:08:56;;;;;;;5.23;2.20;;;;;;;;;;5102062;27;20470;-80
2023/01/07 20:11:24;;;;;;;3.40;1.83;;;;;;;;;;5103828;28;20463;-80
2023/01/07 20:13:52;;;;;;;3.93;2.20;;;;;;;;;;5104944;28;20499;-80
2023/01/07 20:16:22;;;;;;;2.63;1.80;;;;;;;;;;5106062;27;20466;-79
2023/01/07 20:18:50;;;;;;;2.37;1.77;;;;;;;;;;5104199;27;20920;-80
2023/01/07 20:21:18;;;;;;;4.87;1.90;;;;;;;;;;5103807;27;20462;-79
2023/01/07 20:23:46;;;;;;;2.47;1.70;;;;;;;;;;5105384;27;20455;-79
2023/01/07 20:26:15;;;;;;;3.23;1.73;;;;;;;;;;5103813;27;20448;-79
2023/01/07 20:28:43;;;;;;;3.57;2.20;;;;;;;;;;5102933;27;20473;-79
2023/01/07 20:31:12;;;;;;;4.20;2.47;;;;;;;;;;5094828;27;20828;-79
2023/01/07 20:33:41;;;;;;;8.03;3.90;;;;;;;;;;5083728;28;20516;-80
2023/01/07 20:36:09;;;;;;;4.80;2.87;;;;;;;;;;5083713;28;20987;-79
2023/01/07 20:38:37;;;;;;;3.37;2.70;;;;;;;;;;5082279;28;20493;-79
2023/01/07 20:41:05;;;;;;;4.10;2.63;;;;;;;;;;5083733;28;20467;-79
2023/01/07 20:43:33;;;;;;;3.00;2.00;;;;;;;;;;5082494;28;20460;-79